sensor_id;sensor_type;location;lat;lon;timestamp;temperature;humidity
4615;DHT22;2320;51.362;6.946;2023-05-19T00:00:20;9.60;99.90
4615;DHT22;2320;51.362;6.946;2023-05-19T00:02:45;9.60;99.90
4615;DHT22;2320;51.362;6.946;2023-05-19T00:05:11;9.50;99.90
4615;DHT22;2320;51.362;6.946;2023-05-19T00:07:39;9.40;99.90
4615;DHT22;2320;51.362;6.946;2023-05-19T00:10:05;9.30;99.90
4615;DHT22;2320;51.362;6.946;2023-05-19T00:12:31;9.40;99.90
4615;DHT22;2320;51.362;6.946;2023-05-19T00:14:56;9.60;99.90
4615;DHT22;2320;51.362;6.946;2023-05-19T00:17:22;9.50;99.90
4615;DHT22;2320;51.362;6.946;2023-05-19T00:19:48;9.30;99.90
4615;DHT22;2320;51.362;6.946;2023-05-19T00:22:14;9.10;99.90
4615;DHT22;2320;51.362;6.946;2023-05-19T00:24:40;9.10;99.90
4615;DHT22;2320;51.362;6.946;2023-05-19T00:27:05;9.00;99.90
4615;DHT22;2320;51.362;6.946;2023-05-19T00:29:31;8.80;99.90
4615;DHT22;2320;51.362;6.946;2023-05-19T00:31:56;8.90;99.90
4615;DHT22;2320;51.362;6.946;2023-05-19T00:34:22;9.00;99.90
4615;DHT22;2320;51.362;6.946;2023-05-19T00:36:47;9.20;99.90
4615;DHT22;2320;51.362;6.946;2023-05-19T00:39:13;9.30;99.90
4615;DHT22;2320;51.362;6.946;2023-05-19T00:41:38;9.20;99.90
4615;DHT22;2320;51.362;6.946;2023-05-19T00:44:05;9.20;99.90
4615;DHT22;2320;51.362;6.946;2023-05-19T00:46:30;9.00;99.90
4615;DHT22;2320;51.362;6.946;2023-05-19T00:48:56;9.10;99.90
4615;DHT22;2320;51.362;6.946;2023-05-19T00:51:22;9.10;99.90
4615;DHT22;2320;51.362;6.946;2023-05-19T00:53:48;9.00;99.90
4615;DHT22;2320;51.362;6.946;2023-05-19T00:56:16;9.10;99.90
4615;DHT22;2320;51.362;6.946;2023-05-19T00:58:42;9.00;99.90
4615;DHT22;2320;51.362;6.946;2023-05-19T01:01:08;8.90;99.90
4615;DHT22;2320;51.362;6.946;2023-05-19T01:03:36;8.80;99.90
4615;DHT22;2320;51.362;6.946;2023-05-19T01:06:03;8.80;99.90
4615;DHT22;2320;51.362;6.946;2023-05-19T01:08:32;8.80;99.90
4615;DHT22;2320;51.362;6.946;2023-05-19T01:10:58;8.60;99.90
4615;DHT22;2320;51.362;6.946;2023-05-19T01:13:24;8.60;99.90
4615;DHT22;2320;51.362;6.946;2023-05-19T01:18:20;8.50;99.90
4615;DHT22;2320;51.362;6.946;2023-05-19T01:20:50;8.40;99.90
4615;DHT22;2320;51.362;6.946;2023-05-19T01:23:33;8.50;99.90
4615;DHT22;2320;51.362;6.946;2023-05-19T01:31:11;8.40;99.90
4615;DHT22;2320;51.362;6.946;2023-05-19T01:33:38;8.50;99.90
4615;DHT22;2320;51.362;6.946;2023-05-19T01:36:04;8.40;99.90
4615;DHT22;2320;51.362;6.946;2023-05-19T01:38:31;8.30;99.90
4615;DHT22;2320;51.362;6.946;2023-05-19T01:40:58;8.10;99.90
4615;DHT22;2320;51.362;6.946;2023-05-19T01:43:24;8.20;99.90
4615;DHT22;2320;51.362;6.946;2023-05-19T01:45:50;8.30;99.90
4615;DHT22;2320;51.362;6.946;2023-05-19T01:48:16;8.10;99.90
4615;DHT22;2320;51.362;6.946;2023-05-19T01:50:42;8.00;99.90
4615;DHT22;2320;51.362;6.946;2023-05-19T01:53:07;7.90;99.90
4615;DHT22;2320;51.362;6.946;2023-05-19T01:55:34;7.90;99.90
4615;DHT22;2320;51.362;6.946;2023-05-19T01:58:08;7.90;99.90
4615;DHT22;2320;51.362;6.946;2023-05-19T02:00:39;7.90;99.90
4615;DHT22;2320;51.362;6.946;2023-05-19T02:08:12;7.80;99.90
4615;DHT22;2320;51.362;6.946;2023-05-19T02:10:39;7.80;99.90
4615;DHT22;2320;51.362;6.946;2023-05-19T02:13:05;7.80;99.90
4615;DHT22;2320;51.362;6.946;2023-05-19T02:15:36;7.70;99.90
4615;DHT22;2320;51.362;6.946;2023-05-19T02:18:03;7.60;99.90
4615;DHT22;2320;51.362;6.946;2023-05-19T02:20:29;7.60;99.90
4615;DHT22;2320;51.362;6.946;2023-05-19T02:22:54;7.50;99.90
4615;DHT22;2320;51.362;6.946;2023-05-19T02:25:20;7.40;99.90
4615;DHT22;2320;51.362;6.946;2023-05-19T02:27:47;7.40;99.90
4615;DHT22;2320;51.362;6.946;2023-05-19T02:30:13;7.40;99.90
4615;DHT22;2320;51.362;6.946;2023-05-19T02:32:38;7.40;99.90
4615;DHT22;2320;51.362;6.946;2023-05-19T02:35:04;7.50;99.90
4615;DHT22;2320;51.362;6.946;2023-05-19T02:37:30;7.30;99.90
4615;DHT22;2320;51.362;6.946;2023-05-19T02:39:56;7.30;99.90
4615;DHT22;2320;51.362;6.946;2023-05-19T02:42:22;7.20;99.90
4615;DHT22;2320;51.362;6.946;2023-05-19T02:44:47;7.10;99.90
4615;DHT22;2320;51.362;6.946;2023-05-19T02:47:13;7.20;99.90
4615;DHT22;2320;51.362;6.946;2023-05-19T02:49:39;7.10;99.90
4615;DHT22;2320;51.362;6.946;2023-05-19T02:52:04;7.30;99.90
4615;DHT22;2320;51.362;6.946;2023-05-19T02:54:30;7.20;99.90
4615;DHT22;2320;51.362;6.946;2023-05-19T02:56:56;7.00;99.90
4615;DHT22;2320;51.362;6.946;2023-05-19T02:59:22;6.90;99.90
4615;DHT22;2320;51.362;6.946;2023-05-19T03:01:47;7.10;99.90
4615;DHT22;2320;51.362;6.946;2023-05-19T03:04:13;7.10;99.90
4615;DHT22;2320;51.362;6.946;2023-05-19T03:06:38;7.10;99.90
4615;DHT22;2320;51.362;6.946;2023-05-19T03:09:04;7.10;99.90
4615;DHT22;2320;51.362;6.946;2023-05-19T03:11:30;7.10;99.90
4615;DHT22;2320;51.362;6.946;2023-05-19T03:13:55;7.00;99.90
4615;DHT22;2320;51.362;6.946;2023-05-19T03:16:21;7.00;99.90
4615;DHT22;2320;51.362;6.946;2023-05-19T03:18:46;6.90;99.90
4615;DHT22;2320;51.362;6.946;2023-05-19T03:21:12;6.70;99.90
4615;DHT22;2320;51.362;6.946;2023-05-19T03:23:37;6.80;99.90
4615;DHT22;2320;51.362;6.946;2023-05-19T03:26:03;6.80;99.90
4615;DHT22;2320;51.362;6.946;2023-05-19T03:28:28;6.80;99.90
4615;DHT22;2320;51.362;6.946;2023-05-19T03:30:54;6.70;99.90
4615;DHT22;2320;51.362;6.946;2023-05-19T03:33:19;6.70;99.90
4615;DHT22;2320;51.362;6.946;2023-05-19T03:35:45;6.60;99.90
4615;DHT22;2320;51.362;6.946;2023-05-19T03:38:10;6.60;99.90
4615;DHT22;2320;51.362;6.946;2023-05-19T03:40:36;6.50;99.90
4615;DHT22;2320;51.362;6.946;2023-05-19T03:43:01;6.40;99.90
4615;DHT22;2320;51.362;6.946;2023-05-19T03:45:27;6.30;99.90
4615;DHT22;2320;51.362;6.946;2023-05-19T03:47:52;6.50;99.90
4615;DHT22;2320;51.362;6.946;2023-05-19T03:50:18;6.50;99.90
4615;DHT22;2320;51.362;6.946;2023-05-19T03:52:43;6.60;99.90
4615;DHT22;2320;51.362;6.946;2023-05-19T03:55:11;6.70;99.90
4615;DHT22;2320;51.362;6.946;2023-05-19T03:57:36;6.60;99.90
4615;DHT22;2320;51.362;6.946;2023-05-19T04:00:04;6.80;99.90
4615;DHT22;2320;51.362;6.946;2023-05-19T04:02:30;6.60;99.90
4615;DHT22;2320;51.362;6.946;2023-05-19T04:04:55;6.50;99.90
4615;DHT22;2320;51.362;6.946;2023-05-19T04:07:21;6.80;99.90
4615;DHT22;2320;51.362;6.946;2023-05-19T04:09:48;6.70;99.90
4615;DHT22;2320;51.362;6.946;2023-05-19T04:12:13;6.70;99.90
4615;DHT22;2320;51.362;6.946;2023-05-19T04:14:39;6.90;99.90
4615;DHT22;2320;51.362;6.946;2023-05-19T04:17:04;6.90;99.90
4615;DHT22;2320;51.362;6.946;2023-05-19T04:19:30;6.90;99.90
4615;DHT22;2320;51.362;6.946;2023-05-19T04:21:55;7.10;99.90
4615;DHT22;2320;51.362;6.946;2023-05-19T04:24:21;7.10;99.90
4615;DHT22;2320;51.362;6.946;2023-05-19T04:26:46;7.20;99.90
4615;DHT22;2320;51.362;6.946;2023-05-19T04:29:12;7.30;99.90
4615;DHT22;2320;51.362;6.946;2023-05-19T04:31:42;7.50;99.90
4615;DHT22;2320;51.362;6.946;2023-05-19T04:34:08;7.50;99.90
4615;DHT22;2320;51.362;6.946;2023-05-19T04:36:34;7.60;99.90
4615;DHT22;2320;51.362;6.946;2023-05-19T04:38:59;7.60;99.90
4615;DHT22;2320;51.362;6.946;2023-05-19T04:41:27;7.70;99.90
4615;DHT22;2320;51.362;6.946;2023-05-19T04:43:53;7.80;99.90
4615;DHT22;2320;51.362;6.946;2023-05-19T04:46:21;7.80;99.90
4615;DHT22;2320;51.362;6.946;2023-05-19T04:48:48;8.00;99.90
4615;DHT22;2320;51.362;6.946;2023-05-19T04:51:14;8.10;99.90
4615;DHT22;2320;51.362;6.946;2023-05-19T04:53:40;8.10;99.90
4615;DHT22;2320;51.362;6.946;2023-05-19T04:56:06;8.20;99.90
4615;DHT22;2320;51.362;6.946;2023-05-19T04:58:31;8.40;99.90
4615;DHT22;2320;51.362;6.946;2023-05-19T05:00:57;8.60;99.90
4615;DHT22;2320;51.362;6.946;2023-05-19T05:03:23;8.70;99.90
4615;DHT22;2320;51.362;6.946;2023-05-19T05:05:49;9.00;99.90
4615;DHT22;2320;51.362;6.946;2023-05-19T05:08:15;9.90;99.90
4615;DHT22;2320;51.362;6.946;2023-05-19T05:10:46;10.80;99.90
4615;DHT22;2320;51.362;6.946;2023-05-19T05:13:11;12.10;99.90
4615;DHT22;2320;51.362;6.946;2023-05-19T05:15:37;12.90;99.90
4615;DHT22;2320;51.362;6.946;2023-05-19T05:18:03;13.70;99.90
4615;DHT22;2320;51.362;6.946;2023-05-19T05:20:29;14.40;99.90
4615;DHT22;2320;51.362;6.946;2023-05-19T05:22:55;15.30;99.90
4615;DHT22;2320;51.362;6.946;2023-05-19T05:25:21;15.80;99.90
4615;DHT22;2320;51.362;6.946;2023-05-19T05:27:47;16.30;99.90
4615;DHT22;2320;51.362;6.946;2023-05-19T05:30:13;16.50;99.90
4615;DHT22;2320;51.362;6.946;2023-05-19T05:32:38;16.90;99.90
4615;DHT22;2320;51.362;6.946;2023-05-19T05:35:04;17.40;99.90
4615;DHT22;2320;51.362;6.946;2023-05-19T05:37:29;18.40;99.90
4615;DHT22;2320;51.362;6.946;2023-05-19T05:39:55;18.80;99.90
4615;DHT22;2320;51.362;6.946;2023-05-19T05:42:20;19.00;99.90
4615;DHT22;2320;51.362;6.946;2023-05-19T05:44:46;18.90;99.90
4615;DHT22;2320;51.362;6.946;2023-05-19T05:47:11;19.20;99.90
4615;DHT22;2320;51.362;6.946;2023-05-19T05:49:38;19.20;99.90
4615;DHT22;2320;51.362;6.946;2023-05-19T05:52:04;19.50;99.90
4615;DHT22;2320;51.362;6.946;2023-05-19T05:54:30;19.80;99.90
4615;DHT22;2320;51.362;6.946;2023-05-19T05:56:56;19.90;99.90
4615;DHT22;2320;51.362;6.946;2023-05-19T05:59:21;19.70;99.90
4615;DHT22;2320;51.362;6.946;2023-05-19T06:01:47;19.90;99.90
4615;DHT22;2320;51.362;6.946;2023-05-19T06:04:12;19.90;99.90
4615;DHT22;2320;51.362;6.946;2023-05-19T06:06:38;20.10;99.90
4615;DHT22;2320;51.362;6.946;2023-05-19T06:09:03;19.60;99.90
4615;DHT22;2320;51.362;6.946;2023-05-19T06:11:29;19.60;99.90
4615;DHT22;2320;51.362;6.946;2023-05-19T06:13:55;19.30;99.90
4615;DHT22;2320;51.362;6.946;2023-05-19T06:16:20;19.30;99.90
4615;DHT22;2320;51.362;6.946;2023-05-19T06:18:46;20.00;99.90
4615;DHT22;2320;51.362;6.946;2023-05-19T06:21:11;20.30;99.90
4615;DHT22;2320;51.362;6.946;2023-05-19T06:23:40;20.70;99.90
4615;DHT22;2320;51.362;6.946;2023-05-19T06:26:06;21.00;99.90
4615;DHT22;2320;51.362;6.946;2023-05-19T06:28:32;21.20;99.90
4615;DHT22;2320;51.362;6.946;2023-05-19T06:30:57;22.20;99.90
4615;DHT22;2320;51.362;6.946;2023-05-19T06:33:24;22.10;99.70
4615;DHT22;2320;51.362;6.946;2023-05-19T06:35:49;22.50;98.30
4615;DHT22;2320;51.362;6.946;2023-05-19T06:38:15;22.40;97.50
4615;DHT22;2320;51.362;6.946;2023-05-19T06:40:40;22.30;97.60
4615;DHT22;2320;51.362;6.946;2023-05-19T06:43:06;23.20;95.40
4615;DHT22;2320;51.362;6.946;2023-05-19T06:45:31;23.60;93.80
4615;DHT22;2320;51.362;6.946;2023-05-19T06:47:57;23.80;92.30
4615;DHT22;2320;51.362;6.946;2023-05-19T06:50:23;23.50;92.20
4615;DHT22;2320;51.362;6.946;2023-05-19T06:52:49;24.00;93.80
4615;DHT22;2320;51.362;6.946;2023-05-19T06:55:15;24.10;90.90
4615;DHT22;2320;51.362;6.946;2023-05-19T06:57:41;24.10;89.90
4615;DHT22;2320;51.362;6.946;2023-05-19T07:00:06;24.20;90.70
4615;DHT22;2320;51.362;6.946;2023-05-19T07:02:37;24.20;86.70
4615;DHT22;2320;51.362;6.946;2023-05-19T07:05:02;23.90;86.30
4615;DHT22;2320;51.362;6.946;2023-05-19T07:07:28;23.20;86.40
4615;DHT22;2320;51.362;6.946;2023-05-19T07:09:53;22.50;87.00
4615;DHT22;2320;51.362;6.946;2023-05-19T07:12:19;21.10;90.50
4615;DHT22;2320;51.362;6.946;2023-05-19T07:14:44;21.30;90.80
4615;DHT22;2320;51.362;6.946;2023-05-19T07:17:10;21.70;91.20
4615;DHT22;2320;51.362;6.946;2023-05-19T07:19:35;22.60;90.20
4615;DHT22;2320;51.362;6.946;2023-05-19T07:22:01;23.20;87.90
4615;DHT22;2320;51.362;6.946;2023-05-19T07:24:26;24.30;85.50
4615;DHT22;2320;51.362;6.946;2023-05-19T07:26:52;24.80;85.10
4615;DHT22;2320;51.362;6.946;2023-05-19T07:29:17;24.50;82.20
4615;DHT22;2320;51.362;6.946;2023-05-19T07:31:45;24.30;81.60
4615;DHT22;2320;51.362;6.946;2023-05-19T07:34:10;25.30;79.90
4615;DHT22;2320;51.362;6.946;2023-05-19T07:36:36;25.20;79.00
4615;DHT22;2320;51.362;6.946;2023-05-19T07:39:01;26.00;77.80
4615;DHT22;2320;51.362;6.946;2023-05-19T07:41:27;26.00;74.70
4615;DHT22;2320;51.362;6.946;2023-05-19T07:43:53;25.60;74.00
4615;DHT22;2320;51.362;6.946;2023-05-19T07:46:18;25.10;75.30
4615;DHT22;2320;51.362;6.946;2023-05-19T07:48:44;25.60;75.20
4615;DHT22;2320;51.362;6.946;2023-05-19T07:51:10;25.30;74.30
4615;DHT22;2320;51.362;6.946;2023-05-19T07:53:36;25.00;73.90
4615;DHT22;2320;51.362;6.946;2023-05-19T07:56:02;25.50;74.00
4615;DHT22;2320;51.362;6.946;2023-05-19T07:58:27;25.60;72.20
4615;DHT22;2320;51.362;6.946;2023-05-19T08:00:55;25.50;71.40
4615;DHT22;2320;51.362;6.946;2023-05-19T08:03:21;26.10;73.00
4615;DHT22;2320;51.362;6.946;2023-05-19T08:05:47;26.10;69.90
4615;DHT22;2320;51.362;6.946;2023-05-19T08:08:13;25.90;68.90
4615;DHT22;2320;51.362;6.946;2023-05-19T08:10:41;25.50;68.60
4615;DHT22;2320;51.362;6.946;2023-05-19T08:13:06;25.40;68.30
4615;DHT22;2320;51.362;6.946;2023-05-19T08:15:32;25.80;71.40
4615;DHT22;2320;51.362;6.946;2023-05-19T08:17:57;26.90;66.70
4615;DHT22;2320;51.362;6.946;2023-05-19T08:20:23;26.80;65.30
4615;DHT22;2320;51.362;6.946;2023-05-19T08:22:48;27.20;64.70
4615;DHT22;2320;51.362;6.946;2023-05-19T08:25:14;27.00;63.80
4615;DHT22;2320;51.362;6.946;2023-05-19T08:27:39;27.50;66.20
4615;DHT22;2320;51.362;6.946;2023-05-19T08:30:05;28.60;66.80
4615;DHT22;2320;51.362;6.946;2023-05-19T08:32:30;28.30;59.80
4615;DHT22;2320;51.362;6.946;2023-05-19T08:34:56;27.20;59.50
4615;DHT22;2320;51.362;6.946;2023-05-19T08:37:21;27.00;59.60
4615;DHT22;2320;51.362;6.946;2023-05-19T08:39:47;27.10;60.60
4615;DHT22;2320;51.362;6.946;2023-05-19T08:42:12;27.10;59.30
4615;DHT22;2320;51.362;6.946;2023-05-19T08:44:38;26.70;59.50
4615;DHT22;2320;51.362;6.946;2023-05-19T08:47:05;26.00;60.30
4615;DHT22;2320;51.362;6.946;2023-05-19T08:49:42;26.20;60.40
4615;DHT22;2320;51.362;6.946;2023-05-19T08:54:36;26.40;59.70
4615;DHT22;2320;51.362;6.946;2023-05-19T08:57:05;26.90;59.50
4615;DHT22;2320;51.362;6.946;2023-05-19T08:59:32;27.10;58.70
4615;DHT22;2320;51.362;6.946;2023-05-19T09:01:57;26.70;57.40
4615;DHT22;2320;51.362;6.946;2023-05-19T09:04:23;27.10;57.90
4615;DHT22;2320;51.362;6.946;2023-05-19T09:06:49;26.80;56.80
4615;DHT22;2320;51.362;6.946;2023-05-19T09:09:14;26.30;57.10
4615;DHT22;2320;51.362;6.946;2023-05-19T09:11:40;26.20;57.40
4615;DHT22;2320;51.362;6.946;2023-05-19T09:14:09;26.40;57.80
4615;DHT22;2320;51.362;6.946;2023-05-19T09:16:35;26.40;57.60
4615;DHT22;2320;51.362;6.946;2023-05-19T09:19:00;26.50;57.30
4615;DHT22;2320;51.362;6.946;2023-05-19T09:21:30;26.20;55.40
4615;DHT22;2320;51.362;6.946;2023-05-19T09:23:56;26.30;57.80
4615;DHT22;2320;51.362;6.946;2023-05-19T09:26:22;26.00;56.50
4615;DHT22;2320;51.362;6.946;2023-05-19T09:28:47;25.50;57.60
4615;DHT22;2320;51.362;6.946;2023-05-19T09:31:13;25.80;58.60
4615;DHT22;2320;51.362;6.946;2023-05-19T09:33:39;26.80;57.80
4615;DHT22;2320;51.362;6.946;2023-05-19T09:36:06;26.80;57.40
4615;DHT22;2320;51.362;6.946;2023-05-19T09:38:36;26.50;56.70
4615;DHT22;2320;51.362;6.946;2023-05-19T09:41:02;26.90;56.30
4615;DHT22;2320;51.362;6.946;2023-05-19T09:43:28;26.60;55.40
4615;DHT22;2320;51.362;6.946;2023-05-19T09:46:14;27.40;55.90
4615;DHT22;2320;51.362;6.946;2023-05-19T09:48:39;27.90;55.60
4615;DHT22;2320;51.362;6.946;2023-05-19T09:51:06;27.60;54.10
4615;DHT22;2320;51.362;6.946;2023-05-19T09:53:33;27.40;54.10
4615;DHT22;2320;51.362;6.946;2023-05-19T09:55:59;28.30;55.90
4615;DHT22;2320;51.362;6.946;2023-05-19T09:58:29;29.30;53.40
4615;DHT22;2320;51.362;6.946;2023-05-19T10:00:55;28.80;52.00
4615;DHT22;2320;51.362;6.946;2023-05-19T10:03:21;27.70;52.60
4615;DHT22;2320;51.362;6.946;2023-05-19T10:05:47;27.20;54.00
4615;DHT22;2320;51.362;6.946;2023-05-19T10:08:12;27.10;53.70
4615;DHT22;2320;51.362;6.946;2023-05-19T10:10:38;27.00;53.70
4615;DHT22;2320;51.362;6.946;2023-05-19T10:13:04;27.00;53.90
4615;DHT22;2320;51.362;6.946;2023-05-19T10:15:30;27.60;55.50
4615;DHT22;2320;51.362;6.946;2023-05-19T10:17:55;27.40;52.60
4615;DHT22;2320;51.362;6.946;2023-05-19T10:20:21;26.80;53.00
4615;DHT22;2320;51.362;6.946;2023-05-19T10:22:47;26.90;54.50
4615;DHT22;2320;51.362;6.946;2023-05-19T10:25:13;26.40;53.20
4615;DHT22;2320;51.362;6.946;2023-05-19T10:27:51;26.00;52.80
4615;DHT22;2320;51.362;6.946;2023-05-19T10:30:24;25.70;55.30
4615;DHT22;2320;51.362;6.946;2023-05-19T10:32:51;26.20;53.90
4615;DHT22;2320;51.362;6.946;2023-05-19T10:37:46;26.00;53.10
4615;DHT22;2320;51.362;6.946;2023-05-19T10:40:17;25.60;54.50
4615;DHT22;2320;51.362;6.946;2023-05-19T10:43:05;25.30;53.30
4615;DHT22;2320;51.362;6.946;2023-05-19T10:45:45;24.80;54.00
4615;DHT22;2320;51.362;6.946;2023-05-19T10:48:15;24.20;54.30
4615;DHT22;2320;51.362;6.946;2023-05-19T10:50:44;23.90;55.70
4615;DHT22;2320;51.362;6.946;2023-05-19T10:53:16;24.30;54.80
4615;DHT22;2320;51.362;6.946;2023-05-19T10:55:49;25.30;54.50
4615;DHT22;2320;51.362;6.946;2023-05-19T10:58:14;25.60;54.70
4615;DHT22;2320;51.362;6.946;2023-05-19T11:00:40;26.00;53.00
4615;DHT22;2320;51.362;6.946;2023-05-19T11:03:14;26.10;53.70
4615;DHT22;2320;51.362;6.946;2023-05-19T11:05:40;25.90;53.00
4615;DHT22;2320;51.362;6.946;2023-05-19T11:08:10;26.80;54.10
4615;DHT22;2320;51.362;6.946;2023-05-19T11:10:36;27.20;52.60
4615;DHT22;2320;51.362;6.946;2023-05-19T11:13:03;27.10;53.30
4615;DHT22;2320;51.362;6.946;2023-05-19T11:15:28;27.80;53.50
4615;DHT22;2320;51.362;6.946;2023-05-19T11:17:58;27.80;51.20
4615;DHT22;2320;51.362;6.946;2023-05-19T11:20:25;26.80;51.30
4615;DHT22;2320;51.362;6.946;2023-05-19T11:25:42;26.20;52.40
4615;DHT22;2320;51.362;6.946;2023-05-19T11:28:09;25.90;53.00
4615;DHT22;2320;51.362;6.946;2023-05-19T11:30:34;25.50;53.20
4615;DHT22;2320;51.362;6.946;2023-05-19T11:33:00;25.30;54.60
4615;DHT22;2320;51.362;6.946;2023-05-19T11:35:27;25.80;53.50
4615;DHT22;2320;51.362;6.946;2023-05-19T11:37:53;26.50;53.70
4615;DHT22;2320;51.362;6.946;2023-05-19T11:40:20;26.00;53.40
4615;DHT22;2320;51.362;6.946;2023-05-19T11:42:45;24.90;53.20
4615;DHT22;2320;51.362;6.946;2023-05-19T11:45:11;24.60;54.00
4615;DHT22;2320;51.362;6.946;2023-05-19T11:47:36;24.00;55.00
4615;DHT22;2320;51.362;6.946;2023-05-19T11:50:02;23.90;55.70
4615;DHT22;2320;51.362;6.946;2023-05-19T11:52:28;23.20;57.40
4615;DHT22;2320;51.362;6.946;2023-05-19T11:54:53;23.00;57.40
4615;DHT22;2320;51.362;6.946;2023-05-19T11:57:19;22.90;57.40
4615;DHT22;2320;51.362;6.946;2023-05-19T11:59:45;22.40;58.20
4615;DHT22;2320;51.362;6.946;2023-05-19T12:02:16;22.10;59.30
4615;DHT22;2320;51.362;6.946;2023-05-19T12:04:42;21.90;58.90
4615;DHT22;2320;51.362;6.946;2023-05-19T12:07:09;21.70;59.30
4615;DHT22;2320;51.362;6.946;2023-05-19T12:09:36;21.50;60.30
4615;DHT22;2320;51.362;6.946;2023-05-19T12:12:02;21.70;61.30
4615;DHT22;2320;51.362;6.946;2023-05-19T12:14:28;21.90;59.20
4615;DHT22;2320;51.362;6.946;2023-05-19T12:16:54;22.00;59.00
4615;DHT22;2320;51.362;6.946;2023-05-19T12:19:21;21.80;60.80
4615;DHT22;2320;51.362;6.946;2023-05-19T12:21:47;21.50;60.40
4615;DHT22;2320;51.362;6.946;2023-05-19T12:24:13;21.30;61.60
4615;DHT22;2320;51.362;6.946;2023-05-19T12:26:39;21.50;61.20
4615;DHT22;2320;51.362;6.946;2023-05-19T12:29:04;21.50;59.70
4615;DHT22;2320;51.362;6.946;2023-05-19T12:31:31;21.50;60.70
4615;DHT22;2320;51.362;6.946;2023-05-19T12:33:57;21.20;59.90
4615;DHT22;2320;51.362;6.946;2023-05-19T12:36:23;20.70;60.70
4615;DHT22;2320;51.362;6.946;2023-05-19T12:38:52;20.80;62.30
4615;DHT22;2320;51.362;6.946;2023-05-19T12:41:18;21.00;62.40
4615;DHT22;2320;51.362;6.946;2023-05-19T12:43:43;21.10;63.10
4615;DHT22;2320;51.362;6.946;2023-05-19T12:46:09;21.10;63.30
4615;DHT22;2320;51.362;6.946;2023-05-19T12:48:39;21.20;62.70
4615;DHT22;2320;51.362;6.946;2023-05-19T12:51:05;21.10;62.40
4615;DHT22;2320;51.362;6.946;2023-05-19T12:53:30;20.90;62.40
4615;DHT22;2320;51.362;6.946;2023-05-19T12:55:57;21.00;63.20
4615;DHT22;2320;51.362;6.946;2023-05-19T12:58:22;21.10;62.50
4615;DHT22;2320;51.362;6.946;2023-05-19T13:00:48;21.20;62.70
4615;DHT22;2320;51.362;6.946;2023-05-19T13:03:15;21.10;64.30
4615;DHT22;2320;51.362;6.946;2023-05-19T13:05:42;20.90;63.00
4615;DHT22;2320;51.362;6.946;2023-05-19T13:10:33;20.70;63.70
4615;DHT22;2320;51.362;6.946;2023-05-19T13:12:59;20.50;64.30
4615;DHT22;2320;51.362;6.946;2023-05-19T13:15:26;20.50;65.60
4615;DHT22;2320;51.362;6.946;2023-05-19T13:17:52;20.60;67.30
4615;DHT22;2320;51.362;6.946;2023-05-19T13:20:18;20.80;66.30
4615;DHT22;2320;51.362;6.946;2023-05-19T13:22:43;21.00;66.90
4615;DHT22;2320;51.362;6.946;2023-05-19T13:25:09;21.20;65.90
4615;DHT22;2320;51.362;6.946;2023-05-19T13:27:35;21.30;65.90
4615;DHT22;2320;51.362;6.946;2023-05-19T13:30:01;21.40;65.80
4615;DHT22;2320;51.362;6.946;2023-05-19T13:32:26;21.20;66.60
4615;DHT22;2320;51.362;6.946;2023-05-19T13:34:52;21.10;65.90
4615;DHT22;2320;51.362;6.946;2023-05-19T13:37:17;21.10;66.10
4615;DHT22;2320;51.362;6.946;2023-05-19T13:39:43;21.20;65.40
4615;DHT22;2320;51.362;6.946;2023-05-19T13:42:08;21.30;65.30
4615;DHT22;2320;51.362;6.946;2023-05-19T13:44:33;21.50;66.60
4615;DHT22;2320;51.362;6.946;2023-05-19T13:46:59;21.50;65.90
4615;DHT22;2320;51.362;6.946;2023-05-19T13:49:24;21.20;65.00
4615;DHT22;2320;51.362;6.946;2023-05-19T13:51:50;20.70;65.30
4615;DHT22;2320;51.362;6.946;2023-05-19T13:54:16;20.80;65.80
4615;DHT22;2320;51.362;6.946;2023-05-19T13:56:42;20.80;65.20
4615;DHT22;2320;51.362;6.946;2023-05-19T13:59:08;21.00;66.10
4615;DHT22;2320;51.362;6.946;2023-05-19T14:01:34;21.10;64.20
4615;DHT22;2320;51.362;6.946;2023-05-19T14:03:59;20.90;64.40
4615;DHT22;2320;51.362;6.946;2023-05-19T14:06:25;20.80;64.90
4615;DHT22;2320;51.362;6.946;2023-05-19T14:08:52;20.80;64.80
4615;DHT22;2320;51.362;6.946;2023-05-19T14:11:17;20.70;65.10
4615;DHT22;2320;51.362;6.946;2023-05-19T14:13:44;20.50;63.30
4615;DHT22;2320;51.362;6.946;2023-05-19T14:16:10;20.50;63.30
4615;DHT22;2320;51.362;6.946;2023-05-19T14:18:35;20.70;62.30
4615;DHT22;2320;51.362;6.946;2023-05-19T14:21:01;20.80;62.30
4615;DHT22;2320;51.362;6.946;2023-05-19T14:23:26;20.90;63.40
4615;DHT22;2320;51.362;6.946;2023-05-19T14:25:53;21.00;62.20
4615;DHT22;2320;51.362;6.946;2023-05-19T14:28:18;20.70;63.10
4615;DHT22;2320;51.362;6.946;2023-05-19T14:30:44;20.70;62.90
4615;DHT22;2320;51.362;6.946;2023-05-19T14:33:09;20.70;62.00
4615;DHT22;2320;51.362;6.946;2023-05-19T14:35:35;20.70;62.90
4615;DHT22;2320;51.362;6.946;2023-05-19T14:38:00;20.90;62.30
4615;DHT22;2320;51.362;6.946;2023-05-19T14:40:26;20.70;62.00
4615;DHT22;2320;51.362;6.946;2023-05-19T14:42:51;20.80;63.30
4615;DHT22;2320;51.362;6.946;2023-05-19T14:45:17;21.00;62.20
4615;DHT22;2320;51.362;6.946;2023-05-19T14:47:42;20.90;61.60
4615;DHT22;2320;51.362;6.946;2023-05-19T14:50:08;20.90;61.80
4615;DHT22;2320;51.362;6.946;2023-05-19T14:52:33;20.90;61.40
4615;DHT22;2320;51.362;6.946;2023-05-19T14:54:59;20.90;61.50
4615;DHT22;2320;51.362;6.946;2023-05-19T14:57:24;21.00;60.90
4615;DHT22;2320;51.362;6.946;2023-05-19T14:59:50;20.80;60.90
4615;DHT22;2320;51.362;6.946;2023-05-19T15:02:15;20.70;61.30
4615;DHT22;2320;51.362;6.946;2023-05-19T15:04:41;20.80;62.70
4615;DHT22;2320;51.362;6.946;2023-05-19T15:07:06;20.90;60.20
4615;DHT22;2320;51.362;6.946;2023-05-19T15:09:32;20.80;61.50
4615;DHT22;2320;51.362;6.946;2023-05-19T15:11:57;21.00;59.80
4615;DHT22;2320;51.362;6.946;2023-05-19T15:14:25;20.90;60.30
4615;DHT22;2320;51.362;6.946;2023-05-19T15:16:51;20.80;59.00
4615;DHT22;2320;51.362;6.946;2023-05-19T15:19:16;20.70;59.10
4615;DHT22;2320;51.362;6.946;2023-05-19T15:21:42;20.60;59.50
4615;DHT22;2320;51.362;6.946;2023-05-19T15:24:10;20.50;60.10
4615;DHT22;2320;51.362;6.946;2023-05-19T15:26:35;20.70;60.10
4615;DHT22;2320;51.362;6.946;2023-05-19T15:29:01;20.70;59.10
4615;DHT22;2320;51.362;6.946;2023-05-19T15:31:26;20.70;60.20
4615;DHT22;2320;51.362;6.946;2023-05-19T15:33:52;20.80;59.00
4615;DHT22;2320;51.362;6.946;2023-05-19T15:36:17;20.80;59.20
4615;DHT22;2320;51.362;6.946;2023-05-19T15:38:43;20.80;60.50
4615;DHT22;2320;51.362;6.946;2023-05-19T15:41:08;20.90;61.60
4615;DHT22;2320;51.362;6.946;2023-05-19T15:43:34;20.90;62.50
4615;DHT22;2320;51.362;6.946;2023-05-19T15:45:59;20.90;62.70
4615;DHT22;2320;51.362;6.946;2023-05-19T15:48:25;20.80;61.30
4615;DHT22;2320;51.362;6.946;2023-05-19T15:50:56;20.70;62.00
4615;DHT22;2320;51.362;6.946;2023-05-19T15:53:22;20.80;62.00
4615;DHT22;2320;51.362;6.946;2023-05-19T15:55:48;20.80;61.70
4615;DHT22;2320;51.362;6.946;2023-05-19T15:58:13;20.60;61.60
4615;DHT22;2320;51.362;6.946;2023-05-19T16:00:40;20.50;61.70
4615;DHT22;2320;51.362;6.946;2023-05-19T16:03:06;20.50;61.80
4615;DHT22;2320;51.362;6.946;2023-05-19T16:05:31;20.50;62.80
4615;DHT22;2320;51.362;6.946;2023-05-19T16:07:57;20.60;63.10
4615;DHT22;2320;51.362;6.946;2023-05-19T16:10:22;20.60;62.70
4615;DHT22;2320;51.362;6.946;2023-05-19T16:12:48;20.70;63.40
4615;DHT22;2320;51.362;6.946;2023-05-19T16:15:13;20.70;62.80
4615;DHT22;2320;51.362;6.946;2023-05-19T16:17:38;20.60;63.50
4615;DHT22;2320;51.362;6.946;2023-05-19T16:20:04;20.60;64.30
4615;DHT22;2320;51.362;6.946;2023-05-19T16:22:30;20.70;64.80